Time;durP1;ratioP1;P1;durP2;ratioP2;P2;SDS_P1;SDS_P2;PMS_P1;PMS_P2;Temp;Humidity;BMP_temperature;BMP_pressure;BME280_temperature;BME280_humidity;BME280_pressure;Samples;Min_cycle;Max_cycle;Signal;HPM_P1;HPM_P2
2022/01/17 00:00:53;;;;;;;16.45;8.95;;;;;;;2.24;61.32;93771.88;2075156;69;20229;-68
2022/01/17 00:03:24;;;;;;;17.50;9.15;;;;;;;1.97;62.73;93773.84;2075027;69;20183;-69
2022/01/17 00:05:53;;;;;;;14.52;8.32;;;;;;;2.17;61.41;93774.53;2074190;69;20256;-69
2022/01/17 00:08:19;;;;;;;14.82;8.25;;;;;;;2.05;62.29;93782.31;2074430;69;20159;-69
2022/01/17 00:10:46;;;;;;;16.27;8.23;;;;;;;2.19;61.78;93778.28;2074914;69;20144;-69
2022/01/17 00:16:13;;;;;;;18.30;9.13;;;;;;;2.12;61.80;93773.34;2070159;69;20188;-70
2022/01/17 00:21:06;;;;;;;14.80;8.77;;;;;;;2.14;61.67;93778.38;2074363;69;20148;-69
2022/01/17 00:23:32;;;;;;;16.80;9.15;;;;;;;1.96;62.46;93777.13;2074889;69;20158;-71
2022/01/17 00:25:58;;;;;;;17.45;9.77;;;;;;;2.08;62.51;93786.06;2074735;69;20186;-74
2022/01/17 00:28:24;;;;;;;16.95;9.45;;;;;;;2.04;62.47;93800.25;2074828;69;20215;-68
2022/01/17 00:30:49;;;;;;;14.95;8.93;;;;;;;2.11;62.95;93804.44;2074785;69;20188;-68
2022/01/17 00:33:15;;;;;;;18.15;9.10;;;;;;;2.19;61.69;93810.88;2074725;69;20200;-68
2022/01/17 00:35:41;;;;;;;15.93;8.98;;;;;;;1.96;62.71;93811.22;2074746;69;20552;-69
2022/01/17 00:38:07;;;;;;;16.63;9.93;;;;;;;2.00;62.56;93816.47;2074815;69;20507;-68
2022/01/17 00:40:33;;;;;;;18.65;9.63;;;;;;;2.04;62.65;93823.22;2074273;69;20262;-67
2022/01/17 00:42:58;;;;;;;16.63;9.18;;;;;;;2.09;62.83;93820.88;2070510;69;20259;-68
2022/01/17 00:45:27;;;;;;;17.77;9.68;;;;;;;2.14;61.67;93815.25;2075000;69;20176;-68
2022/01/17 00:47:57;;;;;;;17.88;9.63;;;;;;;1.96;62.25;93827.13;2071394;69;20151;-68
2022/01/17 00:50:25;;;;;;;15.45;8.88;;;;;;;1.93;63.17;93828.22;2074817;69;20140;-68
2022/01/17 00:52:50;;;;;;;14.88;8.40;;;;;;;1.88;62.64;93824.22;2074914;69;20143;-67
2022/01/17 00:55:16;;;;;;;18.20;9.45;;;;;;;1.67;64.36;93823.25;2074846;69;20223;-68
2022/01/17 00:57:42;;;;;;;18.40;9.18;;;;;;;1.85;63.51;93833.59;2074984;69;20148;-68
2022/01/17 01:00:09;;;;;;;14.55;9.18;;;;;;;1.91;63.37;93834.28;2074854;69;20507;-69
2022/01/17 01:02:35;;;;;;;16.83;8.73;;;;;;;1.85;63.75;93830.09;2074711;69;20171;-68
2022/01/17 01:05:04;;;;;;;16.73;9.30;;;;;;;2.00;62.72;93827.59;2074643;69;20260;-68
2022/01/17 01:07:29;;;;;;;13.65;7.93;;;;;;;2.10;61.70;93834.25;2074796;69;20571;-68
2022/01/17 01:10:28;;;;;;;27.70;11.60;;;;;;;1.70;64.06;93825.75;2074733;69;20213;-68
2022/01/17 01:12:49;;;;;;;24.55;11.80;;;;;;;1.88;63.24;93824.22;2073913;69;20159;-66
2022/01/17 01:15:20;;;;;;;21.60;10.70;;;;;;;1.94;63.02;93827.66;2074800;69;20152;-67
2022/01/17 01:17:50;;;;;;;18.00;8.95;;;;;;;1.70;64.19;93828.53;2074770;69;20175;-67
2022/01/17 01:28:31;;;;;;;20.75;9.30;;;;;;;1.98;62.79;93825.34;2074726;69;20607;-67
2022/01/17 01:30:58;;;;;;;18.50;9.35;;;;;;;1.49;65.10;93833.09;2074631;69;20150;-68
2022/01/17 01:33:32;;;;;;;16.30;9.32;;;;;;;1.68;64.73;93831.06;2074621;69;20160;-67
2022/01/17 01:36:06;;;;;;;18.10;9.45;;;;;;;1.78;64.11;93825.88;2074384;69;20538;-66
2022/01/17 01:38:31;;;;;;;18.30;10.18;;;;;;;1.58;65.03;93834.75;2074594;69;20148;-67
2022/01/17 01:40:57;;;;;;;17.35;9.18;;;;;;;1.77;64.14;93835.47;2071273;69;20140;-67
2022/01/17 01:43:23;;;;;;;17.27;9.38;;;;;;;1.81;64.08;93832.41;2074618;69;20533;-68
2022/01/17 01:45:58;;;;;;;18.65;9.60;;;;;;;1.66;64.03;93830.84;2068373;69;20175;-67
2022/01/17 01:48:24;;;;;;;17.63;8.88;;;;;;;1.63;64.81;93834.66;2074249;69;20155;-67
2022/01/17 01:50:49;;;;;;;17.05;9.13;;;;;;;1.87;63.96;93844.94;2073737;69;20204;-68
2022/01/17 01:53:15;;;;;;;15.77;9.35;;;;;;;1.85;63.82;93849.53;2074266;69;20713;-69
2022/01/17 01:55:41;;;;;;;17.70;8.57;;;;;;;1.87;63.46;93853.25;2074176;69;20207;-69
2022/01/17 01:58:09;;;;;;;17.58;8.68;;;;;;;1.74;63.83;93851.19;2073947;69;20148;-67
2022/01/17 02:00:34;;;;;;;18.08;9.40;;;;;;;1.80;63.49;93853.88;2073751;69;20131;-67
2022/01/17 02:03:00;;;;;;;16.65;9.63;;;;;;;1.89;63.73;93849.97;2073482;69;20601;-67
2022/01/17 02:05:26;;;;;;;20.95;9.45;;;;;;;1.91;63.69;93848.16;2074066;69;20147;-68
2022/01/17 02:07:51;;;;;;;15.05;8.90;;;;;;;1.96;63.35;93839.00;2074271;69;20144;-69
2022/01/17 02:10:17;;;;;;;14.52;8.40;;;;;;;2.02;62.95;93827.81;2073808;69;20217;-68
2022/01/17 02:12:44;;;;;;;16.10;7.85;;;;;;;2.03;63.01;93821.72;2074490;69;20147;-67
2022/01/17 02:15:17;;;;;;;14.52;8.40;;;;;;;2.07;62.80;93809.56;2075192;69;20538;-66
2022/01/17 02:17:48;;;;;;;17.63;8.85;;;;;;;1.52;64.98;93813.38;2075130;69;20136;-67
2022/01/17 02:20:16;;;;;;;19.90;10.07;;;;;;;1.63;64.91;93815.22;2071762;69;20136;-67
2022/01/17 02:22:42;;;;;;;18.38;9.57;;;;;;;1.92;63.43;93810.03;2071897;69;20148;-67
2022/01/17 02:25:08;;;;;;;22.88;10.95;;;;;;;1.74;64.76;93809.53;2075097;69;20147;-67
2022/01/17 02:27:34;;;;;;;23.35;11.85;;;;;;;1.87;64.10;93797.72;2075338;69;20167;-67
2022/01/17 02:30:00;;;;;;;23.10;12.20;;;;;;;1.91;64.23;93802.97;2075167;69;20152;-67
2022/01/17 02:32:25;;;;;;;24.73;11.68;;;;;;;1.91;64.11;93803.72;2075254;69;20238;-67
2022/01/17 02:34:51;;;;;;;21.73;10.35;;;;;;;1.76;64.46;93804.19;2074926;69;20165;-67
2022/01/17 02:37:18;;;;;;;18.00;9.32;;;;;;;1.42;66.20;93819.78;2074404;69;20147;-68
2022/01/17 02:39:45;;;;;;;17.00;8.95;;;;;;;1.77;64.95;93814.03;2074906;69;20208;-67
2022/01/17 02:42:15;;;;;;;17.05;9.25;;;;;;;1.84;64.27;93815.47;2074867;69;20152;-66
2022/01/17 02:44:45;;;;;;;19.92;10.60;;;;;;;1.22;66.97;93821.81;2074357;69;20258;-67
2022/01/17 02:47:11;;;;;;;17.90;10.02;;;;;;;1.64;65.21;93819.50;2070859;69;20224;-67
2022/01/17 02:49:37;;;;;;;21.85;10.45;;;;;;;1.73;64.60;93816.34;2074619;69;20155;-68
2022/01/17 02:52:03;;;;;;;19.25;10.27;;;;;;;1.74;64.92;93800.44;2074354;69;20160;-66
2022/01/17 02:54:28;;;;;;;16.63;9.55;;;;;;;1.77;64.79;93794.59;2074987;69;20164;-68
2022/01/17 02:56:54;;;;;;;19.08;10.18;;;;;;;1.90;64.16;93779.25;2075235;69;20267;-69
2022/01/17 02:59:19;;;;;;;19.30;9.93;;;;;;;1.87;64.02;93781.06;2075361;69;20568;-70
2022/01/17 03:01:45;;;;;;;12.82;7.85;;;;;;;1.87;64.46;93774.75;2071870;69;20140;-68
2022/01/17 03:04:11;;;;;;;16.42;9.40;;;;;;;1.42;66.20;93776.16;2075368;69;20213;-70
2022/01/17 03:06:36;;;;;;;17.95;9.00;;;;;;;1.74;65.34;93778.22;2075068;69;20238;-68
2022/01/17 03:09:02;;;;;;;17.23;9.07;;;;;;;1.66;65.70;93783.66;2075278;69;20128;-67
2022/01/17 03:11:28;;;;;;;18.25;9.75;;;;;;;1.74;65.06;93792.88;2075496;69;20213;-67
2022/01/17 03:13:54;;;;;;;18.70;9.82;;;;;;;1.78;64.98;93801.63;2075195;69;20140;-67
2022/01/17 03:16:29;;;;;;;19.65;9.70;;;;;;;1.95;63.57;93800.66;2075252;69;20155;-67
2022/01/17 03:18:55;;;;;;;13.90;8.35;;;;;;;1.95;63.92;93818.06;2071942;69;20209;-67
2022/01/17 03:21:20;;;;;;;17.70;9.40;;;;;;;2.03;63.70;93826.53;2075155;69;20231;-68
2022/01/17 03:23:49;;;;;;;15.10;8.63;;;;;;;2.09;63.09;93826.44;2075221;69;20255;-67
2022/01/17 03:26:14;;;;;;;17.17;7.95;;;;;;;2.09;63.23;93824.41;2075210;69;20128;-68
2022/01/17 03:28:40;;;;;;;16.30;7.97;;;;;;;2.14;62.77;93825.59;2075159;69;20205;-70
2022/01/17 03:31:07;;;;;;;13.35;8.48;;;;;;;2.03;62.82;93823.75;2075171;69;20159;-69
2022/01/17 03:33:33;;;;;;;36.55;20.00;;;;;;;1.80;63.96;93820.56;2075272;69;20148;-71
2022/01/17 03:35:59;;;;;;;20.27;10.82;;;;;;;1.82;64.34;93814.47;2075130;69;20174;-70
2022/01/17 03:38:28;;;;;;;20.75;11.02;;;;;;;1.98;63.87;93819.78;2075200;69;20152;-70
2022/01/17 03:40:54;;;;;;;26.65;15.32;;;;;;;2.04;63.39;93814.88;2075305;69;20148;-69
2022/01/17 03:43:21;;;;;;;20.05;11.60;;;;;;;1.95;63.95;93820.84;2075328;69;20185;-71
2022/01/17 03:45:49;;;;;;;22.67;12.98;;;;;;;1.56;65.83;93803.97;2075266;69;20208;-69
2022/01/17 03:48:15;;;;;;;21.13;11.65;;;;;;;1.71;65.72;93805.03;2075151;69;20155;-69
2022/01/17 03:50:41;;;;;;;21.05;11.10;;;;;;;1.76;64.91;93804.19;2071724;69;20223;-69
2022/01/17 03:53:07;;;;;;;18.85;9.15;;;;;;;1.48;66.54;93804.59;2075150;69;20159;-72
2022/01/17 03:55:34;;;;;;;18.33;9.68;;;;;;;1.57;65.91;93794.38;2075105;69;20155;-68
2022/01/17 03:58:01;;;;;;;19.40;9.27;;;;;;;1.82;64.74;93792.25;2075196;69;20674;-68
2022/01/17 04:00:33;;;;;;;16.05;8.48;;;;;;;1.97;64.01;93775.84;2075451;69;20226;-68
2022/01/17 04:02:59;;;;;;;13.27;8.20;;;;;;;1.90;64.74;93768.91;2075224;69;20279;-68
2022/01/17 04:05:25;;;;;;;14.15;8.68;;;;;;;1.94;63.97;93772.13;2074937;69;20205;-68
2022/01/17 04:07:51;;;;;;;14.98;8.20;;;;;;;1.96;63.92;93771.59;2071632;69;20602;-68
2022/01/17 04:10:17;;;;;;;19.98;10.80;;;;;;;1.80;64.62;93770.56;2075104;69;20148;-68
2022/01/17 04:12:44;;;;;;;17.88;10.65;;;;;;;1.93;64.04;93769.88;2075080;69;20168;-68
2022/01/17 04:15:10;;;;;;;18.15;10.55;;;;;;;1.92;64.16;93779.47;2075109;69;20144;-68
2022/01/17 04:17:36;;;;;;;16.25;8.80;;;;;;;1.82;64.02;93786.69;2075170;69;20231;-67
2022/01/17 04:20:07;;;;;;;28.13;16.60;;;;;;;1.83;64.79;93783.38;2075008;69;20503;-67
2022/01/17 04:22:37;;;;;;;27.08;14.57;;;;;;;1.80;64.88;93789.28;2075071;69;20123;-67
2022/01/17 04:25:05;;;;;;;24.75;12.93;;;;;;;1.87;64.43;93777.53;2075219;69;20590;-68
2022/01/17 04:27:31;;;;;;;19.88;11.73;;;;;;;1.91;64.23;93783.53;2075040;69;20583;-68
2022/01/17 04:29:56;;;;;;;20.27;10.65;;;;;;;2.01;63.41;93793.72;2071895;69;20252;-68
2022/01/17 04:32:22;;;;;;;18.85;10.35;;;;;;;1.94;64.13;93782.47;2075059;69;20167;-67
2022/01/17 04:34:48;;;;;;;18.33;9.32;;;;;;;2.02;63.44;93788.94;2071664;69;20151;-68
2022/01/17 04:37:13;;;;;;;19.23;9.80;;;;;;;2.04;63.51;93794.69;2074909;69;20140;-69
2022/01/17 04:39:39;;;;;;;18.08;10.35;;;;;;;2.05;63.58;93793.41;2074889;69;20555;-68
2022/01/17 04:42:11;;;;;;;24.15;13.75;;;;;;;2.07;63.79;93796.44;2075001;69;20144;-68
2022/01/17 04:47:23;;;;;;;23.00;12.38;;;;;;;2.00;63.95;93780.38;2075071;69;20190;-70
2022/01/17 04:49:48;;;;;;;30.05;15.85;;;;;;;1.95;64.16;93781.19;2074978;69;20647;-68
2022/01/17 04:52:14;;;;;;;26.90;14.57;;;;;;;1.97;64.17;93776.63;2075050;69;20140;-68
2022/01/17 04:54:42;;;;;;;29.15;16.02;;;;;;;2.00;64.16;93775.56;2075001;69;20144;-68
2022/01/17 04:57:09;;;;;;;29.45;15.63;;;;;;;2.07;63.56;93779.00;2074963;69;20148;-70
2022/01/17 04:59:35;;;;;;;24.73;13.40;;;;;;;2.12;63.62;93798.38;2075090;69;20155;-70
2022/01/17 05:02:01;;;;;;;19.45;11.07;;;;;;;2.00;63.66;93800.56;2075041;69;20514;-68
2022/01/17 05:04:27;;;;;;;20.83;10.85;;;;;;;1.32;66.87;93797.22;2075251;69;20231;-68
2022/01/17 05:06:52;;;;;;;20.42;10.50;;;;;;;1.51;66.55;93791.66;2074786;69;20136;-68
2022/01/17 05:09:18;;;;;;;22.25;11.43;;;;;;;1.83;65.51;93797.28;2074964;69;20152;-68
2022/01/17 05:11:43;;;;;;;21.10;10.68;;;;;;;1.95;64.84;93787.50;2075065;69;20140;-68
2022/01/17 05:14:10;;;;;;;19.10;10.27;;;;;;;1.99;63.89;93787.94;2075000;69;20266;-68
2022/01/17 05:16:42;;;;;;;16.75;10.05;;;;;;;2.06;63.75;93789.34;2075090;69;20151;-69
2022/01/17 05:21:52;;;;;;;18.00;9.98;;;;;;;1.99;63.97;93795.53;2074995;69;20602;-69
2022/01/17 05:24:18;;;;;;;19.08;10.45;;;;;;;2.02;64.09;93798.00;2074973;69;20227;-72
2022/01/17 05:26:44;;;;;;;17.52;9.80;;;;;;;1.85;64.57;93799.53;2075039;69;20140;-70
2022/01/17 05:29:09;;;;;;;20.13;11.02;;;;;;;1.68;65.66;93813.66;2071640;69;20237;-69
2022/01/17 05:31:35;;;;;;;18.92;11.75;;;;;;;1.82;65.00;93801.34;2075043;69;20526;-68
2022/01/17 05:34:01;;;;;;;19.17;11.25;;;;;;;1.85;65.28;93805.09;2075007;69;20238;-69
2022/01/17 05:36:26;;;;;;;20.02;10.90;;;;;;;1.88;65.03;93820.69;2074847;69;20176;-71
2022/01/17 05:38:52;;;;;;;18.10;10.10;;;;;;;1.89;64.47;93830.53;2074888;69;20499;-68
2022/01/17 05:41:19;;;;;;;15.80;9.55;;;;;;;1.83;64.74;93835.41;2074899;69;20148;-68
2022/01/17 05:43:44;;;;;;;16.38;9.18;;;;;;;1.64;65.11;93836.16;2074884;69;20174;-68
2022/01/17 05:46:10;;;;;;;17.35;9.23;;;;;;;1.65;65.59;93851.56;2074901;69;20231;-68
2022/01/17 05:48:36;;;;;;;19.20;11.20;;;;;;;1.87;64.79;93858.81;2075202;69;20234;-68
2022/01/17 05:51:02;;;;;;;18.05;10.88;;;;;;;1.92;64.70;93862.78;2075312;69;20232;-68
2022/01/17 05:53:27;;;;;;;19.55;10.60;;;;;;;1.64;65.86;93854.84;2072055;69;20139;-68
2022/01/17 05:55:53;;;;;;;19.25;10.27;;;;;;;1.97;63.84;93850.84;2075356;69;20525;-68
2022/01/17 05:58:18;;;;;;;21.05;11.32;;;;;;;2.01;64.30;93852.03;2075555;69;20628;-68
2022/01/17 06:00:44;;;;;;;21.40;12.45;;;;;;;2.05;63.92;93857.31;2075467;69;20182;-70
2022/01/17 06:03:10;;;;;;;25.17;13.20;;;;;;;2.00;64.29;93858.88;2075423;69;20224;-68
2022/01/17 06:05:36;;;;;;;23.70;13.50;;;;;;;2.01;64.42;93849.25;2075265;69;20168;-68
2022/01/17 06:08:01;;;;;;;22.50;12.95;;;;;;;2.07;63.66;93843.66;2075450;69;20508;-68
2022/01/17 06:10:27;;;;;;;22.25;11.70;;;;;;;1.51;66.20;93834.06;2075396;69;20578;-68
2022/01/17 06:12:53;;;;;;;20.98;11.43;;;;;;;1.73;65.56;93832.25;2075386;69;20590;-68
2022/01/17 06:15:18;;;;;;;20.55;11.52;;;;;;;2.00;64.39;93830.34;2075342;69;20145;-68
2022/01/17 06:17:45;;;;;;;21.75;12.00;;;;;;;1.92;64.66;93816.31;2075453;69;20150;-68
2022/01/17 06:20:11;;;;;;;20.13;11.60;;;;;;;2.02;63.91;93802.81;2075246;69;20208;-68
2022/01/17 06:22:37;;;;;;;23.85;12.88;;;;;;;1.63;65.76;93806.16;2075346;69;20132;-72
2022/01/17 06:25:04;;;;;;;21.83;12.40;;;;;;;1.89;64.63;93813.88;2075337;69;20144;-72
2022/01/17 06:27:30;;;;;;;21.00;11.35;;;;;;;1.81;65.28;93813.72;2075295;69;20156;-69
2022/01/17 06:29:57;;;;;;;18.27;10.82;;;;;;;2.01;64.18;93817.97;2075368;69;20658;-73
2022/01/17 06:32:23;;;;;;;19.48;10.45;;;;;;;2.11;63.89;93812.75;2075349;69;20156;-74
2022/01/17 06:34:49;;;;;;;20.45;10.70;;;;;;;1.94;64.15;93824.91;2075192;69;20155;-70
2022/01/17 06:37:15;;;;;;;26.92;14.00;;;;;;;1.59;66.45;93830.69;2075365;69;20144;-69
2022/01/17 06:39:41;;;;;;;31.35;15.40;;;;;;;1.85;65.27;93827.31;2075307;69;20147;-69
2022/01/17 06:42:07;;;;;;;39.63;18.23;;;;;;;1.91;64.95;93828.72;2075328;69;20159;-68
2022/01/17 06:44:33;;;;;;;37.88;19.08;;;;;;;2.00;64.77;93847.78;2075438;69;20170;-69
2022/01/17 06:46:58;;;;;;;42.80;19.88;;;;;;;1.93;64.03;93840.06;2075395;69;20595;-68
2022/01/17 06:49:24;;;;;;;89.40;47.65;;;;;;;1.93;64.70;93858.75;2075249;69;20158;-69
2022/01/17 06:51:50;;;;;;;90.68;51.80;;;;;;;1.82;65.59;93872.78;2075194;69;20239;-69
2022/01/17 06:54:16;;;;;;;76.07;42.25;;;;;;;1.99;64.98;93854.63;2075407;69;20171;-70
2022/01/17 06:56:44;;;;;;;76.88;42.58;;;;;;;2.08;64.46;93849.94;2075247;69;20144;-71
2022/01/17 06:59:14;;;;;;;77.90;43.15;;;;;;;2.13;63.73;93849.88;2075178;69;20182;-72
2022/01/17 07:01:40;;;;;;;71.95;40.92;;;;;;;2.19;63.89;93835.88;2075319;69;20182;-71
2022/01/17 07:04:07;;;;;;;59.40;34.25;;;;;;;2.09;63.59;93835.53;2075291;69;20163;-73
2022/01/17 07:06:33;;;;;;;125.95;57.78;;;;;;;2.03;64.12;93832.84;2075104;69;20156;-69
2022/01/17 07:09:00;;;;;;;88.40;42.78;;;;;;;2.14;63.69;93829.13;2075198;69;20561;-71
2022/01/17 07:11:26;;;;;;;80.47;42.35;;;;;;;2.14;64.17;93826.34;2075221;69;20201;-71
2022/01/17 07:13:52;;;;;;;58.95;31.10;;;;;;;2.21;63.73;93833.34;2075209;69;20621;-70
2022/01/17 07:16:19;;;;;;;54.35;28.58;;;;;;;2.31;63.18;93828.13;2071839;69;20144;-71
2022/01/17 07:18:44;;;;;;;59.47;30.67;;;;;;;2.21;64.05;93825.00;2075116;69;20231;-70
2022/01/17 07:21:10;;;;;;;70.10;34.65;;;;;;;2.04;64.47;93836.34;2075042;69;20148;-68
2022/01/17 07:23:36;;;;;;;51.65;25.38;;;;;;;2.31;63.28;93858.69;2071897;69;20147;-67
2022/01/17 07:26:03;;;;;;;46.50;23.17;;;;;;;2.40;62.88;93863.84;2071786;69;20487;-68
2022/01/17 07:28:29;;;;;;;129.85;60.90;;;;;;;2.16;63.60;93876.59;2075380;69;20155;-69
2022/01/17 07:30:55;;;;;;;87.82;44.00;;;;;;;2.23;64.02;93886.34;2075133;69;20148;-69
2022/01/17 07:33:23;;;;;;;81.75;38.70;;;;;;;2.43;63.66;93910.81;2075135;69;20160;-70
2022/01/17 07:35:48;;;;;;;58.67;28.88;;;;;;;2.54;63.30;93910.63;2075047;69;20212;-74
2022/01/17 07:38:15;;;;;;;45.78;22.80;;;;;;;2.58;63.22;93923.47;2071827;69;20147;-72
2022/01/17 07:40:43;;;;;;;43.28;21.15;;;;;;;2.70;62.78;93933.91;2075144;69;20176;-68
2022/01/17 07:43:10;;;;;;;32.63;15.98;;;;;;;2.60;63.30;93927.22;2075254;69;20156;-69
2022/01/17 07:45:44;;;;;;;35.22;17.73;;;;;;;2.40;64.04;93903.50;2075153;69;20175;-72
2022/01/17 07:48:45;;;;;;;40.10;21.02;;;;;;;2.63;62.78;93886.50;2075126;69;20188;-69
2022/01/17 07:51:08;;;;;;;47.10;23.20;;;;;;;2.70;62.52;93883.06;2075071;69;20147;-70
2022/01/17 07:53:33;;;;;;;35.13;17.90;;;;;;;2.65;63.25;93883.91;2075083;69;20140;-70
2022/01/17 07:55:59;;;;;;;35.08;18.52;;;;;;;2.43;64.19;93894.13;2075017;69;20622;-69
2022/01/17 07:58:24;;;;;;;41.40;20.25;;;;;;;2.65;63.62;93895.03;2075155;69;20174;-68
2022/01/17 08:00:50;;;;;;;39.50;19.65;;;;;;;2.63;64.02;93880.94;2075092;69;20187;-69
2022/01/17 08:03:16;;;;;;;45.03;21.45;;;;;;;2.59;64.14;93884.00;2075144;69;20152;-69
2022/01/17 08:05:41;;;;;;;44.17;20.55;;;;;;;2.76;63.27;93878.19;2071550;69;20140;-68
2022/01/17 08:08:07;;;;;;;37.58;20.40;;;;;;;2.73;63.08;93870.88;2071834;69;20139;-70
2022/01/17 08:10:33;;;;;;;32.53;17.88;;;;;;;2.75;62.69;93874.66;2075012;69;20517;-74
2022/01/17 08:12:59;;;;;;;34.17;17.80;;;;;;;2.97;62.59;93889.44;2074956;69;20144;-69
2022/01/17 08:15:25;;;;;;;33.05;17.85;;;;;;;2.82;63.25;93887.16;2075086;69;20152;-70
2022/01/17 08:17:50;;;;;;;36.95;19.40;;;;;;;2.84;63.68;93890.19;2075057;69;20607;-70
2022/01/17 08:20:17;;;;;;;39.53;17.90;;;;;;;3.02;63.39;93908.84;2074905;69;20290;-71
2022/01/17 08:22:45;;;;;;;38.20;16.75;;;;;;;3.12;63.25;93911.94;2075042;69;20128;-70
2022/01/17 08:25:13;;;;;;;30.50;16.70;;;;;;;3.19;63.33;93922.44;2075018;69;20147;-70
2022/01/17 08:27:38;;;;;;;28.40;15.98;;;;;;;3.23;62.93;93936.03;2071663;69;20511;-69
2022/01/17 08:30:05;;;;;;;31.10;15.88;;;;;;;3.28;61.90;93943.53;2075003;69;20140;-70
2022/01/17 08:32:32;;;;;;;30.67;15.93;;;;;;;3.34;62.77;93938.59;2075050;69;20234;-69
2022/01/17 08:34:58;;;;;;;30.10;16.13;;;;;;;3.43;62.32;93945.78;2074963;69;20234;-69
2022/01/17 08:37:26;;;;;;;27.00;15.07;;;;;;;3.50;61.91;93957.06;2075254;69;20140;-69
2022/01/17 08:39:52;;;;;;;27.67;15.35;;;;;;;3.57;61.23;93950.06;2074916;69;20609;-68
2022/01/17 08:42:19;;;;;;;30.42;15.45;;;;;;;3.45;62.69;93959.94;2075009;69;20140;-71
2022/01/17 08:44:49;;;;;;;29.63;16.13;;;;;;;3.51;62.52;93960.59;2075081;69;20148;-70
2022/01/17 08:47:16;;;;;;;26.25;14.07;;;;;;;3.58;62.02;93954.38;2071659;69;20136;-70
2022/01/17 08:49:44;;;;;;;36.13;15.15;;;;;;;3.26;63.32;93962.81;2071498;69;20144;-69
2022/01/17 08:52:10;;;;;;;41.25;18.80;;;;;;;2.91;64.17;93936.84;2071607;69;20751;-72
2022/01/17 08:54:36;;;;;;;34.97;15.50;;;;;;;3.19;63.42;93935.59;2075027;69;20131;-73
2022/01/17 08:57:02;;;;;;;29.33;14.32;;;;;;;3.57;61.66;93938.94;2074995;69;20143;-71
2022/01/17 08:59:31;;;;;;;25.80;14.63;;;;;;;3.78;61.66;93947.41;2075088;69;20136;-73
2022/01/17 09:01:58;;;;;;;25.88;14.30;;;;;;;3.76;61.14;93955.56;2075051;69;20140;-71
2022/01/17 09:04:23;;;;;;;32.92;15.60;;;;;;;3.78;61.17;93958.56;2075198;69;20155;-68
2022/01/17 09:06:49;;;;;;;36.72;18.15;;;;;;;3.77;61.15;93949.44;2074887;69;20163;-69
2022/01/17 09:09:16;;;;;;;31.02;16.98;;;;;;;3.91;60.02;93950.19;2074976;69;20610;-69
2022/01/17 09:11:43;;;;;;;28.30;15.02;;;;;;;4.05;60.24;93959.28;2075079;69;20151;-69
2022/01/17 09:14:09;;;;;;;24.52;13.73;;;;;;;4.26;59.98;93960.13;2074979;69;20159;-68
2022/01/17 09:16:34;;;;;;;24.58;13.15;;;;;;;4.39;59.87;93956.53;2075102;69;20152;-73
2022/01/17 09:19:01;;;;;;;29.55;13.05;;;;;;;4.29;60.08;93972.22;2074951;69;20233;-72
2022/01/17 09:21:27;;;;;;;113.88;48.33;;;;;;;4.13;59.20;93974.06;2074793;69;20143;-71
2022/01/17 09:23:57;;;;;;;28.90;12.85;;;;;;;4.37;58.84;93989.03;2075411;69;20534;-72
2022/01/17 09:26:25;;;;;;;21.75;11.68;;;;;;;4.40;58.75;94007.47;2075422;69;20136;-75
2022/01/17 09:28:51;;;;;;;18.52;10.38;;;;;;;4.44;59.20;94007.88;2075455;69;20155;-75
2022/01/17 09:31:17;;;;;;;17.10;10.05;;;;;;;4.55;58.95;94002.06;2075425;69;20538;-69
2022/01/17 09:33:42;;;;;;;19.38;11.55;;;;;;;4.49;58.28;93993.84;2075458;69;20160;-69
2022/01/17 09:36:08;;;;;;;27.08;13.60;;;;;;;4.57;58.07;93977.91;2075372;69;20240;-68
2022/01/17 09:38:34;;;;;;;27.17;14.55;;;;;;;4.66;58.06;93987.13;2075460;69;20143;-68
2022/01/17 09:41:01;;;;;;;27.98;14.95;;;;;;;4.78;58.88;93994.72;2075466;69;20199;-68
2022/01/17 09:43:27;;;;;;;27.42;13.82;;;;;;;4.82;58.08;93975.59;2075394;69;20148;-68
2022/01/17 09:45:53;;;;;;;25.85;14.57;;;;;;;4.74;57.20;93966.38;2075455;69;20246;-68
2022/01/17 09:48:21;;;;;;;30.45;15.95;;;;;;;4.87;57.11;93948.84;2075438;69;20224;-68
2022/01/17 09:51:02;;;;;;;25.40;14.10;;;;;;;4.95;57.22;93957.28;2075377;69;20151;-74
2022/01/17 09:53:28;;;;;;;23.40;13.52;;;;;;;4.97;56.77;93974.25;2075568;69;20172;-69
2022/01/17 09:56:01;;;;;;;28.52;16.02;;;;;;;5.04;56.91;93982.69;2075482;69;20614;-73
2022/01/17 09:58:28;;;;;;;;;;;;;;;5.34;57.08;93979.41;2075612;69;20178;-70
2022/01/17 10:00:54;;;;;;;30.13;16.83;;;;;;;5.77;57.81;93972.47;2075557;69;20048;-74
2022/01/17 10:03:21;;;;;;;24.40;13.93;;;;;;;5.78;56.33;93985.16;2075397;69;20650;-74
2022/01/17 10:05:47;;;;;;;21.90;13.25;;;;;;;6.00;57.02;93988.66;2075256;69;20163;-73
2022/01/17 10:08:17;;;;;;;32.60;19.08;;;;;;;6.49;57.99;93990.56;2075317;69;20624;-69
2022/01/17 10:10:52;;;;;;;27.65;15.23;;;;;;;6.20;55.06;93990.63;2075395;69;20236;-69
2022/01/17 10:13:24;;;;;;;24.10;13.85;;;;;;;6.93;56.32;93977.28;2075444;69;20143;-69
2022/01/17 10:16:01;;;;;;;27.33;15.67;;;;;;;7.36;54.02;93973.59;2075408;69;20136;-68
2022/01/17 10:18:39;;;;;;;26.90;16.05;;;;;;;7.93;51.82;93985.75;2075389;69;20522;-69
2022/01/17 10:21:15;;;;;;;24.55;14.52;;;;;;;8.40;51.88;93971.81;2075272;69;20139;-69
2022/01/17 10:23:57;;;;;;;19.52;11.40;;;;;;;8.77;50.46;93974.28;2071988;69;20144;-69
2022/01/17 10:34:56;;;;;;;20.38;9.98;;;;;;;10.96;46.45;93971.44;2075092;69;20648;-75
2022/01/17 10:37:25;;;;;;;25.13;13.75;;;;;;;10.80;43.99;93970.13;2075432;69;20174;-71
2022/01/17 10:39:54;;;;;;;29.73;16.55;;;;;;;11.11;43.55;93974.03;2075314;69;20139;-76
2022/01/17 10:42:35;;;;;;;26.67;13.70;;;;;;;12.39;43.25;93963.34;2072008;69;20224;-69
2022/01/17 10:45:14;;;;;;;18.27;8.88;;;;;;;11.95;41.02;93977.69;2075324;69;20622;-71
2022/01/17 10:47:43;;;;;;;12.70;7.50;;;;;;;11.25;42.37;93976.50;2075288;69;20136;-70
2022/01/17 10:50:19;;;;;;;14.18;7.38;;;;;;;12.43;41.64;93966.50;2071831;69;20167;-69
2022/01/17 10:52:48;;;;;;;13.85;7.05;;;;;;;13.76;39.99;93963.91;2075295;69;20595;-69
2022/01/17 10:55:16;;;;;;;5.78;4.15;;;;;;;12.20;38.18;93958.44;2071879;69;20179;-69
2022/01/17 10:57:45;;;;;;;12.00;5.38;;;;;;;13.01;38.87;93967.78;2075285;69;20152;-70
2022/01/17 11:00:14;;;;;;;8.43;4.40;;;;;;;13.91;38.44;93952.19;2075437;69;20594;-70
2022/01/17 11:02:43;;;;;;;8.57;4.25;;;;;;;14.85;36.89;93959.22;2075265;69;20143;-70
2022/01/17 11:05:14;;;;;;;6.07;3.90;;;;;;;14.11;35.62;93967.00;2071780;69;20168;-70
2022/01/17 11:07:45;;;;;;;8.60;3.42;;;;;;;15.86;35.65;93972.66;2075346;69;20170;-70
2022/01/17 11:10:32;;;;;;;4.60;2.20;;;;;;;15.83;31.80;93962.53;2075426;69;20164;-71
2022/01/17 11:13:02;;;;;;;5.78;2.50;;;;;;;16.62;32.49;93965.78;2075297;69;20159;-70
2022/01/17 11:15:32;;;;;;;3.75;1.90;;;;;;;19.10;29.74;93980.59;2075297;69;20150;-69
2022/01/17 11:18:03;;;;;;;6.13;2.20;;;;;;;19.98;28.36;93994.13;2075343;69;20250;-69
2022/01/17 11:20:29;;;;;;;4.03;2.30;;;;;;;19.99;28.16;93999.19;2075260;69;20143;-69
2022/01/17 11:22:58;;;;;;;2.90;1.80;;;;;;;20.52;26.66;93981.59;2075218;69;20147;-72
2022/01/17 11:25:28;;;;;;;4.38;2.80;;;;;;;20.09;26.27;93990.34;2075251;69;20159;-76
2022/01/17 11:27:54;;;;;;;3.53;1.80;;;;;;;21.65;25.58;93992.78;2075286;69;20602;-73
2022/01/17 11:30:21;;;;;;;2.58;1.40;;;;;;;20.98;24.69;93978.53;2075234;69;20174;-74
2022/01/17 11:32:49;;;;;;;4.45;2.03;;;;;;;20.82;24.63;93987.16;2075201;69;20144;-78
2022/01/17 11:35:17;;;;;;;6.85;1.88;;;;;;;22.43;24.23;93976.44;2071689;69;20241;-70
2022/01/17 11:37:46;;;;;;;2.33;1.40;;;;;;;23.12;23.12;93983.19;2075277;69;20273;-69
2022/01/17 11:40:14;;;;;;;10.00;1.95;;;;;;;21.54;24.01;93965.13;2075161;69;20235;-69
2022/01/17 11:42:42;;;;;;;1.67;1.10;;;;;;;20.51;23.64;93956.50;2075224;69;20251;-71
2022/01/17 11:45:22;;;;;;;14.55;8.13;;;;;;;19.08;25.29;93947.00;2075212;69;20522;-70
2022/01/17 11:47:51;;;;;;;2.90;1.90;;;;;;;18.10;26.69;93935.59;2075270;69;20663;-70
2022/01/17 11:53:10;;;;;;;3.85;2.75;;;;;;;15.54;27.74;93925.97;2071800;69;20596;-69
2022/01/17 11:55:42;;;;;;;3.92;2.38;;;;;;;14.33;29.98;93943.00;2075035;69;20237;-69
2022/01/17 11:58:28;;;;;;;10.88;1.77;;;;;;;13.26;31.87;93945.59;2073306;69;20158;-67
2022/01/17 12:00:59;;;;;;;9.38;2.55;;;;;;;12.77;32.56;93936.44;2074538;69;20171;-67